Time;durP1;ratioP1;P1;durP2;ratioP2;P2;SDS_P1;SDS_P2;PMS_P1;PMS_P2;Temp;Humidity;BMP_temperature;BMP_pressure;BME280_temperature;BME280_humidity;BME280_pressure;Samples;Min_cycle;Max_cycle;Signal;HPM_P1;HPM_P2
2022/04/25 00:01:58;;;;;;;8.63;5.25;;;;;;;15.48;61.76;94229.50;5017366;28;20261;-65
2022/04/25 00:04:26;;;;;;;10.93;5.28;;;;;;;15.50;61.20;94235.44;5017716;28;20264;-66
2022/04/25 00:06:56;;;;;;;9.20;5.60;;;;;;;15.49;61.09;94231.88;5035007;28;20198;-65
2022/04/25 00:09:24;;;;;;;12.27;5.28;;;;;;;15.46;61.14;94241.00;5017924;28;20213;-66
2022/04/25 00:11:51;;;;;;;8.65;5.78;;;;;;;15.47;60.85;94236.25;5034522;28;20201;-65
2022/04/25 00:14:20;;;;;;;11.27;5.93;;;;;;;15.47;61.12;94236.25;5016691;28;20206;-66
2022/04/25 00:16:55;;;;;;;9.43;4.90;;;;;;;15.44;60.52;94235.09;5017911;28;20191;-66
2022/04/25 00:19:23;;;;;;;10.48;5.90;;;;;;;15.44;60.80;94234.28;5017648;28;20229;-65
2022/04/25 00:21:52;;;;;;;10.68;5.13;;;;;;;15.43;60.46;94246.59;5034881;28;20183;-66
2022/04/25 00:24:20;;;;;;;9.85;5.00;;;;;;;15.39;60.82;94241.84;5016995;28;20292;-66
2022/04/25 00:26:47;;;;;;;11.77;5.82;;;;;;;15.35;61.21;94241.06;5034761;28;20197;-66
2022/04/25 00:29:15;;;;;;;9.00;4.80;;;;;;;15.28;62.18;94237.53;5018264;28;20203;-66
2022/04/25 00:31:43;;;;;;;10.13;5.63;;;;;;;15.15;62.40;94235.19;5038500;28;20202;-66
2022/04/25 00:34:12;;;;;;;13.07;5.82;;;;;;;15.09;62.97;94241.56;5038329;28;20229;-66
2022/04/25 00:36:40;;;;;;;12.68;5.63;;;;;;;14.99;63.14;94242.38;5038339;28;20202;-66
2022/04/25 00:39:09;;;;;;;10.18;5.47;;;;;;;14.93;63.30;94231.69;5021505;28;20198;-66
2022/04/25 00:41:38;;;;;;;10.80;5.63;;;;;;;14.95;62.82;94224.94;5020731;28;20202;-65
2022/04/25 00:44:05;;;;;;;12.52;6.13;;;;;;;14.83;62.68;94226.19;5020574;28;20209;-66
2022/04/25 00:46:33;;;;;;;8.63;5.70;;;;;;;14.78;63.58;94221.00;5037935;28;20198;-66
2022/04/25 00:49:01;;;;;;;10.60;5.75;;;;;;;14.75;63.38;94219.84;5037297;28;20256;-66
2022/04/25 00:51:32;;;;;;;10.02;6.00;;;;;;;14.71;62.61;94221.06;5037409;28;20210;-65
2022/04/25 00:54:01;;;;;;;9.48;5.55;;;;;;;14.63;63.06;94215.53;5020435;28;20254;-66
2022/04/25 00:56:30;;;;;;;8.98;5.65;;;;;;;14.63;62.95;94211.94;5037830;28;20204;-66
2022/04/25 00:58:59;;;;;;;13.05;5.88;;;;;;;14.56;63.28;94200.84;5037700;28;20657;-66
2022/04/25 01:01:31;;;;;;;10.23;5.30;;;;;;;14.53;62.52;94205.22;5037027;28;20213;-66
2022/04/25 01:03:59;;;;;;;9.43;5.78;;;;;;;14.51;62.59;94204.03;5037865;28;20192;-65
2022/04/25 01:06:26;;;;;;;12.25;5.55;;;;;;;14.51;63.38;94192.94;5037283;28;20210;-65
2022/04/25 01:08:54;;;;;;;9.82;5.20;;;;;;;14.47;62.86;94195.69;5036937;28;20202;-65
2022/04/25 01:11:22;;;;;;;11.85;5.93;;;;;;;14.47;62.94;94183.81;5036921;28;20206;-65
2022/04/25 01:13:51;;;;;;;10.25;5.95;;;;;;;14.51;62.99;94187.38;5020177;28;20221;-66
2022/04/25 01:16:20;;;;;;;12.02;6.85;;;;;;;14.51;62.91;94187.38;5036821;28;20268;-66
2022/04/25 01:18:47;;;;;;;13.38;6.55;;;;;;;14.51;63.31;94179.84;5037442;28;20248;-65
2022/04/25 01:21:17;;;;;;;13.05;6.43;;;;;;;14.51;63.25;94181.84;5036700;28;20191;-65
2022/04/25 01:29:18;;;;;;;12.45;5.88;;;;;;;14.43;63.42;94175.50;5036401;28;20206;-66
2022/04/25 01:31:46;;;;;;;11.65;6.07;;;;;;;14.40;63.59;94165.19;5037522;28;20217;-66
2022/04/25 01:34:14;;;;;;;10.10;5.63;;;;;;;14.36;63.65;94162.41;5037263;28;20246;-66
2022/04/25 01:36:42;;;;;;;12.15;5.60;;;;;;;14.33;64.42;94156.88;5019970;28;20610;-65
2022/04/25 01:39:13;;;;;;;12.40;5.85;;;;;;;14.33;64.51;94173.50;5020360;28;20221;-66
2022/04/25 01:41:42;;;;;;;10.55;6.40;;;;;;;14.33;64.04;94168.75;5018704;28;20202;-65
2022/04/25 01:44:10;;;;;;;15.27;6.50;;;;;;;14.37;64.73;94169.53;5019740;28;20205;-66
2022/04/25 01:46:39;;;;;;;10.90;5.63;;;;;;;14.38;64.64;94178.69;5037154;28;20187;-66
2022/04/25 01:49:07;;;;;;;12.95;6.03;;;;;;;14.38;64.30;94176.69;5019789;28;20630;-66
2022/04/25 01:51:35;;;;;;;13.30;6.03;;;;;;;14.39;64.37;94172.72;5037083;28;20190;-65
2022/04/25 01:54:04;;;;;;;13.35;6.25;;;;;;;14.41;64.12;94163.97;5036922;28;20229;-65
2022/04/25 01:56:35;;;;;;;12.45;5.47;;;;;;;14.42;63.79;94160.03;5019735;28;20202;-66
2022/04/25 01:59:04;;;;;;;8.80;5.80;;;;;;;14.39;64.25;94152.50;5035778;28;20286;-65
2022/04/25 02:01:32;;;;;;;18.38;6.22;;;;;;;14.31;64.49;94145.41;5036905;28;20190;-65
2022/04/25 02:04:00;;;;;;;14.00;5.90;;;;;;;14.28;64.98;94146.97;5036604;28;20194;-65
2022/04/25 02:06:29;;;;;;;9.13;6.00;;;;;;;14.26;64.77;94143.81;5019351;28;20202;-65
2022/04/25 02:08:56;;;;;;;13.68;6.88;;;;;;;14.24;64.88;94148.97;5036315;28;20261;-65
2022/04/25 02:11:25;;;;;;;10.80;5.80;;;;;;;14.12;65.01;94139.06;5035902;28;20212;-65
2022/04/25 02:13:59;;;;;;;13.88;6.60;;;;;;;14.06;65.29;94137.91;5035753;28;20658;-66
2022/04/25 02:16:27;;;;;;;11.57;6.40;;;;;;;14.06;65.71;94146.22;5036294;28;20293;-65
2022/04/25 02:18:56;;;;;;;14.75;5.88;;;;;;;14.04;65.75;94153.34;5036178;28;20201;-65
2022/04/25 02:21:24;;;;;;;11.13;5.82;;;;;;;14.01;65.92;94157.69;5036472;28;20297;-66
2022/04/25 02:23:52;;;;;;;9.88;6.55;;;;;;;13.99;66.00;94146.22;5035903;28;20236;-65
2022/04/25 02:26:21;;;;;;;11.82;6.78;;;;;;;13.91;65.22;94145.44;5018317;28;20202;-66
2022/04/25 02:28:47;;;;;;;11.60;6.47;;;;;;;13.84;65.36;94159.31;5018612;28;20599;-66
2022/04/25 02:31:20;;;;;;;11.23;6.00;;;;;;;13.83;66.23;94159.69;5035557;28;20194;-66
2022/04/25 02:33:50;;;;;;;13.43;6.03;;;;;;;13.84;65.99;94169.59;5036145;28;20206;-66
2022/04/25 02:36:17;;;;;;;14.32;6.07;;;;;;;13.82;65.32;94161.66;5035291;28;20209;-66
2022/04/25 02:38:46;;;;;;;12.75;5.97;;;;;;;13.83;65.63;94159.69;5018415;28;20199;-65
2022/04/25 02:41:15;;;;;;;11.15;6.22;;;;;;;13.83;64.73;94154.13;5002621;28;20191;-65
2022/04/25 02:43:46;;;;;;;9.18;5.95;;;;;;;13.79;65.69;94145.81;5035787;28;20201;-65
2022/04/25 02:46:18;;;;;;;10.55;6.07;;;;;;;13.72;65.94;94143.03;5034730;28;20198;-65
2022/04/25 02:48:47;;;;;;;11.02;6.05;;;;;;;13.61;65.66;94129.19;5035908;28;20201;-66
2022/04/25 02:51:18;;;;;;;11.40;6.32;;;;;;;13.54;65.12;94112.56;5035879;28;20207;-66
2022/04/25 02:53:46;;;;;;;11.75;6.32;;;;;;;13.41;65.40;94120.47;5035034;28;20277;-65
2022/04/25 02:56:14;;;;;;;10.27;6.05;;;;;;;13.37;66.20;94110.59;5035826;28;20186;-65
2022/04/25 02:58:43;;;;;;;14.23;5.85;;;;;;;13.42;66.29;94115.72;5035529;28;20179;-66
2022/04/25 03:01:11;;;;;;;13.50;6.13;;;;;;;13.40;66.22;94110.59;5018546;28;20205;-65
2022/04/25 03:03:38;;;;;;;8.27;6.25;;;;;;;13.38;66.64;94120.47;5035964;28;20198;-65
2022/04/25 03:06:10;;;;;;;9.63;5.50;;;;;;;13.39;65.95;94119.28;5017992;28;20531;-65
2022/04/25 03:08:37;;;;;;;10.90;6.30;;;;;;;13.33;66.11;94118.09;5035684;28;20265;-66
2022/04/25 03:11:05;;;;;;;11.48;6.03;;;;;;;13.26;66.71;94116.13;5035452;28;20182;-66
2022/04/25 03:13:34;;;;;;;12.45;6.50;;;;;;;13.22;66.32;94121.63;5034323;28;20226;-66
2022/04/25 03:16:03;;;;;;;12.88;6.45;;;;;;;13.21;66.09;94125.53;5035493;28;20186;-66
2022/04/25 03:18:32;;;;;;;11.65;6.10;;;;;;;13.14;66.59;94133.84;5018608;28;20210;-66
2022/04/25 03:21:00;;;;;;;10.45;6.65;;;;;;;13.09;66.35;94130.66;5018068;28;20202;-66
2022/04/25 03:23:36;;;;;;;10.13;6.10;;;;;;;13.07;67.17;94127.50;5034815;28;20209;-66
2022/04/25 03:26:04;;;;;;;11.23;6.18;;;;;;;13.10;66.93;94123.94;5017975;28;20205;-66
2022/04/25 03:28:32;;;;;;;11.80;7.15;;;;;;;13.11;67.09;94133.81;5018390;28;20217;-65
2022/04/25 03:31:00;;;;;;;14.32;6.57;;;;;;;13.11;67.51;94139.34;5034935;28;20186;-66
2022/04/25 03:33:31;;;;;;;13.30;6.90;;;;;;;13.14;66.79;94144.13;5035259;28;20202;-66
2022/04/25 03:36:00;;;;;;;12.65;6.90;;;;;;;13.16;66.93;94148.09;5035324;28;20225;-66
2022/04/25 03:38:33;;;;;;;11.63;6.50;;;;;;;13.16;66.80;94161.16;5035212;28;20213;-65
2022/04/25 03:41:01;;;;;;;11.05;7.00;;;;;;;13.08;67.25;94171.41;5018260;28;20203;-65
2022/04/25 03:43:31;;;;;;;14.80;6.70;;;;;;;13.10;67.00;94166.25;5017854;28;20546;-66
2022/04/25 03:46:00;;;;;;;13.40;6.65;;;;;;;13.12;67.22;94166.66;5035045;28;20225;-66
2022/04/25 03:48:28;;;;;;;13.27;6.80;;;;;;;13.13;67.11;94164.69;5033901;28;20197;-66
2022/04/25 03:50:56;;;;;;;14.75;6.75;;;;;;;13.17;66.99;94174.59;5035072;28;20198;-66
2022/04/25 03:53:24;;;;;;;16.00;6.35;;;;;;;13.20;65.99;94167.47;5035039;28;20202;-65
2022/04/25 03:58:40;;;;;;;12.40;6.00;;;;;;;13.33;65.39;94162.41;5033934;28;20261;-66
2022/04/25 04:01:08;;;;;;;11.88;5.97;;;;;;;13.40;64.85;94154.91;5035013;28;20187;-66
2022/04/25 04:03:36;;;;;;;11.85;6.10;;;;;;;13.44;65.44;94164.00;5035085;28;20183;-66
2022/04/25 04:06:05;;;;;;;13.75;5.93;;;;;;;13.44;65.57;94164.00;5021366;28;20217;-66
2022/04/25 04:08:34;;;;;;;17.23;6.55;;;;;;;13.43;66.65;94170.72;5021596;28;20191;-66
2022/04/25 04:11:05;;;;;;;12.52;7.07;;;;;;;13.36;65.76;94175.44;5038611;28;20693;-66
2022/04/25 04:13:32;;;;;;;16.08;6.50;;;;;;;13.33;66.12;94170.72;5038595;28;20217;-66
2022/04/25 04:15:59;;;;;;;15.45;7.30;;;;;;;13.24;65.97;94182.16;5021167;28;20212;-66
2022/04/25 04:18:27;;;;;;;12.93;6.85;;;;;;;13.16;66.42;94180.53;5038771;28;20202;-66
2022/04/25 04:20:55;;;;;;;9.70;6.78;;;;;;;13.13;66.66;94184.06;5038925;28;20198;-65
2022/04/25 04:23:25;;;;;;;14.15;6.30;;;;;;;13.13;66.47;94186.84;5038553;28;20186;-66
2022/04/25 04:25:56;;;;;;;12.90;6.63;;;;;;;13.14;66.80;94180.91;5018528;28;20195;-66
2022/04/25 04:28:29;;;;;;;16.23;7.05;;;;;;;13.13;66.63;94186.84;5001670;28;20202;-66
2022/04/25 04:30:58;;;;;;;15.55;6.22;;;;;;;13.13;66.85;94182.09;5018678;28;20209;-65
2022/04/25 04:33:28;;;;;;;14.20;7.15;;;;;;;13.14;67.03;94178.13;5018398;28;20534;-66
2022/04/25 04:38:41;;;;;;;14.02;7.28;;;;;;;13.16;67.74;94186.06;5018248;28;20211;-66
2022/04/25 04:41:09;;;;;;;10.63;6.72;;;;;;;13.23;66.82;94200.75;5001148;28;20290;-66
2022/04/25 04:43:39;;;;;;;22.00;10.57;;;;;;;13.32;66.84;94205.91;5001597;28;20195;-66
2022/04/25 04:46:06;;;;;;;22.85;8.27;;;;;;;13.36;67.14;94203.16;5000855;28;20546;-66
2022/04/25 04:48:34;;;;;;;14.43;7.68;;;;;;;13.37;67.37;94208.31;5001892;28;20524;-66
2022/04/25 04:51:03;;;;;;;17.00;7.20;;;;;;;13.38;67.29;94209.88;5018518;28;20179;-66
2022/04/25 04:53:30;;;;;;;15.18;7.13;;;;;;;13.35;67.99;94210.66;5017131;28;20206;-66
2022/04/25 04:55:59;;;;;;;14.60;6.80;;;;;;;13.38;67.82;94212.66;5000824;28;20207;-65
2022/04/25 04:58:28;;;;;;;16.80;7.38;;;;;;;13.42;67.18;94207.91;5017999;28;20202;-66
2022/04/25 05:00:59;;;;;;;13.43;7.30;;;;;;;13.48;66.57;94222.19;5001371;28;20274;-65
2022/04/25 05:03:29;;;;;;;15.07;7.22;;;;;;;13.55;66.35;94222.22;5017003;28;20706;-66
2022/04/25 05:05:57;;;;;;;15.93;7.03;;;;;;;13.61;65.66;94219.81;5018129;28;20199;-65
2022/04/25 05:08:25;;;;;;;11.63;5.75;;;;;;;13.69;64.87;94219.47;5017754;28;20285;-65
2022/04/25 05:10:55;;;;;;;15.18;5.63;;;;;;;13.74;63.99;94221.06;5001044;28;20274;-66
2022/04/25 05:13:23;;;;;;;15.35;5.57;;;;;;;13.80;64.19;94226.97;5017973;28;20199;-65
2022/04/25 05:15:51;;;;;;;13.77;5.80;;;;;;;13.83;63.95;94235.31;5017775;28;20207;-66
2022/04/25 05:18:20;;;;;;;12.23;5.97;;;;;;;13.87;64.47;94233.34;5000671;28;20199;-66
2022/04/25 05:20:49;;;;;;;13.13;5.97;;;;;;;13.91;64.13;94227.81;5017176;28;20210;-65
2022/04/25 05:23:17;;;;;;;12.35;5.82;;;;;;;13.93;64.20;94233.75;5000743;28;20187;-66
2022/04/25 05:25:48;;;;;;;10.48;4.97;;;;;;;13.94;64.42;94235.31;5036455;28;20248;-66
2022/04/25 05:28:16;;;;;;;12.20;5.55;;;;;;;13.98;64.41;94236.13;5037431;28;20191;-65
2022/04/25 05:30:44;;;;;;;11.02;5.70;;;;;;;14.01;63.83;94235.31;5037447;28;20273;-66
2022/04/25 05:33:13;;;;;;;14.77;5.90;;;;;;;14.05;63.46;94236.13;5036718;28;20206;-65
2022/04/25 05:35:42;;;;;;;12.02;4.90;;;;;;;14.10;63.33;94244.06;5037313;28;20207;-66
2022/04/25 05:38:11;;;;;;;10.90;5.20;;;;;;;14.14;63.21;94236.53;5037220;28;20206;-66
2022/04/25 05:40:40;;;;;;;12.07;5.68;;;;;;;14.14;63.52;94233.75;5036936;28;20187;-66
2022/04/25 05:43:09;;;;;;;12.82;5.57;;;;;;;14.23;63.11;94232.56;5036358;28;20194;-66
2022/04/25 05:45:38;;;;;;;13.55;5.38;;;;;;;14.30;61.94;94241.66;5037269;28;20187;-66
2022/04/25 05:51:58;;;;;;;16.40;5.90;;;;;;;14.31;62.89;94248.81;5036833;28;20187;-66
2022/04/25 05:53:45;;;;;;;17.75;7.00;;;;;;;14.34;63.35;94238.88;5036033;28;20426;-66
2022/04/25 05:56:12;;;;;;;12.77;6.18;;;;;;;14.35;63.54;94246.03;5036031;28;20211;-66
2022/04/25 05:58:43;;;;;;;15.65;6.90;;;;;;;14.38;62.71;94246.03;5036327;28;20194;-66
2022/04/25 06:01:13;;;;;;;12.80;6.38;;;;;;;14.41;62.77;94245.22;5019541;28;20217;-65
2022/04/25 06:03:41;;;;;;;13.82;6.75;;;;;;;14.44;62.04;94247.22;5036915;28;20599;-66
2022/04/25 06:06:10;;;;;;;14.85;6.10;;;;;;;14.55;62.08;94240.88;5036717;28;20186;-65
2022/04/25 06:08:39;;;;;;;12.57;5.20;;;;;;;14.63;60.73;94242.47;5036379;28;20199;-66
2022/04/25 06:11:08;;;;;;;12.20;5.25;;;;;;;14.69;60.67;94233.34;5036771;28;20196;-66
2022/04/25 06:13:36;;;;;;;14.38;5.57;;;;;;;14.77;60.56;94219.44;5019297;28;20208;-66
2022/04/25 06:16:07;;;;;;;12.00;5.53;;;;;;;14.81;60.23;94223.78;5036566;28;20317;-66
2022/04/25 06:18:35;;;;;;;12.55;5.68;;;;;;;14.83;59.69;94212.28;5018961;28;20206;-65
2022/04/25 06:21:04;;;;;;;13.52;4.95;;;;;;;14.87;60.00;94211.09;5036769;28;20183;-66
2022/04/25 06:23:34;;;;;;;13.98;5.50;;;;;;;14.92;59.76;94220.97;5035995;28;20194;-65
2022/04/25 06:26:02;;;;;;;11.60;5.30;;;;;;;14.91;60.29;94211.88;5036320;28;20196;-66
2022/04/25 06:28:30;;;;;;;14.38;6.03;;;;;;;14.96;60.06;94207.91;5035369;28;20202;-65
2022/04/25 06:30:59;;;;;;;10.02;5.60;;;;;;;15.02;59.94;94213.81;5036323;28;20183;-66
2022/04/25 06:33:28;;;;;;;14.48;5.97;;;;;;;15.09;59.67;94214.59;5019108;28;20279;-66
2022/04/25 06:35:57;;;;;;;14.50;6.85;;;;;;;15.16;59.48;94220.09;5018726;28;20265;-66
2022/04/25 06:38:24;;;;;;;15.82;5.97;;;;;;;15.20;59.93;94217.31;5036279;28;20244;-66
2022/04/25 06:40:54;;;;;;;13.10;5.50;;;;;;;15.23;59.96;94224.84;5018925;28;20206;-66
2022/04/25 06:43:22;;;;;;;13.55;5.80;;;;;;;15.28;59.92;94218.06;5019180;28;20206;-66
2022/04/25 06:45:50;;;;;;;15.68;5.72;;;;;;;15.35;59.23;94220.81;5036052;28;20209;-66
2022/04/25 06:48:17;;;;;;;16.52;6.20;;;;;;;15.43;59.10;94216.03;5035606;28;20210;-66
2022/04/25 06:50:46;;;;;;;13.18;6.07;;;;;;;15.50;58.99;94210.41;5018997;28;20202;-66
2022/04/25 06:53:15;;;;;;;12.32;5.90;;;;;;;15.60;58.91;94210.38;5035826;28;20210;-66
2022/04/25 06:55:43;;;;;;;14.35;5.72;;;;;;;15.69;58.43;94211.97;5035820;28;20199;-66
2022/04/25 06:58:13;;;;;;;10.18;4.68;;;;;;;15.76;58.67;94200.75;5035760;28;20183;-66
2022/04/25 07:00:41;;;;;;;14.80;4.85;;;;;;;15.85;58.12;94212.25;5034613;28;20226;-66
2022/04/25 07:03:09;;;;;;;13.30;5.88;;;;;;;15.95;57.90;94210.59;5036075;28;20187;-66
2022/04/25 07:05:38;;;;;;;12.10;5.82;;;;;;;15.99;57.49;94214.91;5035423;28;20175;-66
2022/04/25 07:08:06;;;;;;;11.48;4.70;;;;;;;16.04;56.75;94208.91;5018245;28;20435;-66
2022/04/25 07:10:34;;;;;;;13.40;4.63;;;;;;;16.09;56.31;94211.28;5018519;28;20199;-65
2022/04/25 07:13:02;;;;;;;14.80;5.88;;;;;;;16.17;55.82;94209.22;5035583;28;20188;-65
2022/04/25 07:15:33;;;;;;;13.73;4.88;;;;;;;16.25;55.39;94205.19;5034069;28;20230;-66
2022/04/25 07:18:00;;;;;;;12.70;5.07;;;;;;;16.33;55.67;94205.91;5035110;28;20512;-66
2022/04/25 07:20:28;;;;;;;14.73;4.47;;;;;;;16.44;54.13;94200.25;5017762;28;20249;-65
2022/04/25 07:31:17;;;;;;;20.08;5.55;;;;;;;17.06;52.27;94188.88;5018267;28;20205;-66
2022/04/25 07:33:45;;;;;;;17.48;4.75;;;;;;;17.17;52.03;94187.97;5018068;28;20199;-65
2022/04/25 07:36:20;;;;;;;18.20;5.03;;;;;;;17.30;51.95;94189.00;5035019;28;20221;-65
2022/04/25 07:38:48;;;;;;;10.68;4.50;;;;;;;17.39;49.95;94177.34;5034954;28;20204;-66
2022/04/25 07:41:14;;;;;;;15.82;5.10;;;;;;;17.42;49.34;94182.06;5034995;28;20194;-65
2022/04/25 07:43:43;;;;;;;8.60;4.45;;;;;;;17.43;48.76;94194.78;5034826;28;20610;-66
2022/04/25 07:46:12;;;;;;;16.58;4.10;;;;;;;17.46;45.11;94185.59;5034999;28;20217;-65
2022/04/25 07:48:41;;;;;;;14.93;4.53;;;;;;;17.52;43.74;94183.94;5017689;28;20212;-66
2022/04/25 07:51:08;;;;;;;9.00;3.70;;;;;;;17.61;45.17;94184.22;5017801;28;20214;-65
2022/04/25 07:53:36;;;;;;;12.55;3.92;;;;;;;17.68;44.24;94188.88;5017873;28;20186;-65
2022/04/25 07:56:04;;;;;;;11.80;3.97;;;;;;;17.74;43.16;94184.44;5035052;28;20202;-66
2022/04/25 07:58:31;;;;;;;15.82;5.25;;;;;;;17.78;43.18;94180.41;5034907;28;20213;-66
2022/04/25 08:00:59;;;;;;;15.55;4.35;;;;;;;17.87;42.19;94188.25;5017526;28;20202;-65
2022/04/25 08:03:27;;;;;;;11.55;4.43;;;;;;;17.98;42.16;94176.94;5034730;28;20193;-66
2022/04/25 08:05:58;;;;;;;12.93;3.75;;;;;;;18.09;41.04;94171.97;5017656;28;20204;-66
2022/04/25 08:08:26;;;;;;;12.90;4.60;;;;;;;18.22;40.14;94181.31;5017267;28;20198;-66
2022/04/25 08:10:55;;;;;;;14.65;4.15;;;;;;;18.31;39.44;94180.78;5017891;28;20579;-66
2022/04/25 08:18:55;;;;;;;18.90;3.92;;;;;;;18.51;39.65;94180.84;5035077;28;20179;-65
2022/04/25 08:21:24;;;;;;;14.40;3.85;;;;;;;18.62;38.68;94184.22;5034069;28;20244;-65
2022/04/25 08:23:53;;;;;;;14.60;3.90;;;;;;;18.70;39.22;94159.75;5017463;28;20234;-65
2022/04/25 08:26:21;;;;;;;15.52;4.10;;;;;;;18.82;38.32;94164.75;5034731;28;20202;-65
2022/04/25 08:28:52;;;;;;;13.20;3.67;;;;;;;18.84;38.34;94161.53;5017098;28;20285;-65
2022/04/25 08:31:20;;;;;;;14.25;3.83;;;;;;;18.92;37.08;94168.56;5017709;28;20194;-66
2022/04/25 08:33:49;;;;;;;13.63;4.90;;;;;;;19.03;39.31;94154.38;5033603;28;20289;-66
2022/04/25 08:36:18;;;;;;;15.85;3.55;;;;;;;19.08;36.48;94162.25;5017081;28;20221;-65
2022/04/25 08:38:47;;;;;;;18.23;3.83;;;;;;;19.12;36.50;94172.16;5034750;28;20190;-65
2022/04/25 08:41:19;;;;;;;12.48;3.35;;;;;;;19.16;37.12;94172.84;5033970;28;20202;-65
2022/04/25 08:43:51;;;;;;;11.38;3.67;;;;;;;19.30;36.99;94171.00;5017509;28;20203;-65
2022/04/25 08:46:21;;;;;;;11.68;3.78;;;;;;;19.37;35.93;94160.47;5017164;28;20190;-66
2022/04/25 08:48:50;;;;;;;10.95;3.40;;;;;;;19.42;37.14;94142.38;5034594;28;20194;-66
2022/04/25 08:51:18;;;;;;;10.55;3.47;;;;;;;19.51;36.78;94159.38;5019219;28;20202;-66
2022/04/25 08:53:48;;;;;;;14.02;2.88;;;;;;;19.66;36.56;94157.06;5038214;28;20265;-66
2022/04/25 08:56:22;;;;;;;11.48;3.63;;;;;;;19.79;34.20;94160.78;5037936;28;20222;-66
2022/04/25 08:58:51;;;;;;;12.38;3.72;;;;;;;19.88;35.88;94160.19;5037677;28;20602;-66
2022/04/25 09:01:19;;;;;;;11.90;3.47;;;;;;;19.94;34.12;94152.84;5020564;28;20230;-66
2022/04/25 09:03:47;;;;;;;13.15;3.22;;;;;;;20.01;34.03;94157.47;5020283;28;20202;-66
2022/04/25 09:06:19;;;;;;;13.77;3.55;;;;;;;20.03;33.82;94155.81;5020501;28;20182;-66
2022/04/25 09:08:49;;;;;;;14.48;3.67;;;;;;;20.07;33.58;94144.53;5020417;28;20344;-66
2022/04/25 09:14:04;;;;;;;12.00;3.38;;;;;;;20.23;33.92;94124.94;5037279;28;20516;-65
2022/04/25 09:16:32;;;;;;;9.27;3.17;;;;;;;20.33;33.45;94128.69;5020305;28;20220;-65
2022/04/25 09:19:00;;;;;;;9.95;3.20;;;;;;;20.46;33.09;94129.56;5020068;28;20713;-65
2022/04/25 09:21:28;;;;;;;12.50;3.40;;;;;;;20.51;31.34;94136.66;5020215;28;20198;-65
2022/04/25 09:23:59;;;;;;;13.48;2.80;;;;;;;20.55;31.51;94114.94;5037481;28;20234;-66
2022/04/25 09:26:29;;;;;;;10.60;2.58;;;;;;;20.65;31.74;94128.69;5019942;28;20565;-65
2022/04/25 09:28:59;;;;;;;16.27;3.38;;;;;;;20.77;31.20;94123.56;5037014;28;20269;-66
2022/04/25 09:31:27;;;;;;;14.95;3.72;;;;;;;20.90;30.09;94113.22;5037056;28;20199;-65
2022/04/25 09:34:15;;;;;;;14.10;3.47;;;;;;;20.99;29.08;94126.56;5019920;28;20194;-65
2022/04/25 09:36:55;;;;;;;15.00;3.60;;;;;;;21.08;29.34;94121.91;5036900;28;20213;-65
2022/04/25 09:39:36;;;;;;;10.32;3.38;;;;;;;21.25;28.16;94111.41;5036903;28;20281;-66
2022/04/25 09:42:04;;;;;;;12.20;3.33;;;;;;;21.34;28.90;94108.75;5036231;28;20571;-66
2022/04/25 09:44:53;;;;;;;9.43;3.25;;;;;;;21.42;28.67;94128.97;5037418;28;20205;-66
2022/04/25 09:47:31;;;;;;;13.05;2.80;;;;;;;21.48;27.93;94121.59;5035869;28;20217;-66
2022/04/25 09:50:01;;;;;;;10.25;3.20;;;;;;;21.55;28.83;94115.75;5019210;28;20289;-66
2022/04/25 09:52:29;;;;;;;8.90;3.13;;;;;;;21.71;28.45;94111.28;5019690;28;20194;-66
2022/04/25 09:55:11;;;;;;;9.48;3.33;;;;;;;21.79;26.54;94110.63;5019404;28;20191;-66
2022/04/25 09:57:39;;;;;;;13.20;4.03;;;;;;;21.78;27.33;94111.06;5018999;28;20190;-65
2022/04/25 10:00:08;;;;;;;12.98;2.80;;;;;;;21.83;28.67;94113.31;5019115;28;20626;-65
2022/04/25 10:02:39;;;;;;;12.82;3.15;;;;;;;21.94;28.18;94099.72;5034752;28;20210;-66
2022/04/25 10:05:17;;;;;;;12.48;3.30;;;;;;;22.00;28.41;94091.50;5019234;28;20210;-66
2022/04/25 10:07:45;;;;;;;8.32;3.17;;;;;;;22.04;27.83;94094.97;5019267;28;20211;-66
2022/04/25 10:10:15;;;;;;;10.45;3.10;;;;;;;22.14;28.00;94088.25;5035311;28;20208;-66
2022/04/25 10:12:43;;;;;;;9.48;2.78;;;;;;;22.28;26.76;94099.03;5019499;28;20195;-66
2022/04/25 10:15:11;;;;;;;7.43;3.03;;;;;;;22.39;26.12;94107.09;5019239;28;20253;-65
2022/04/25 10:17:39;;;;;;;6.85;3.00;;;;;;;22.44;24.47;94089.69;5036610;28;20195;-65
2022/04/25 10:20:09;;;;;;;9.43;2.97;;;;;;;22.46;24.70;94100.47;5019148;28;20202;-66
2022/04/25 10:22:37;;;;;;;8.85;2.97;;;;;;;22.52;25.16;94085.38;5018857;28;20195;-65
2022/04/25 10:25:05;;;;;;;7.25;2.50;;;;;;;22.62;24.52;94093.88;5035347;28;20226;-65
2022/04/25 10:27:36;;;;;;;8.43;2.67;;;;;;;22.67;23.39;94085.66;5019350;28;20218;-65
2022/04/25 10:30:10;;;;;;;7.60;2.22;;;;;;;22.77;26.01;94078.13;5019274;28;20205;-65
2022/04/25 10:32:38;;;;;;;8.50;2.42;;;;;;;22.64;25.23;94089.38;5019329;28;20257;-65
2022/04/25 10:35:12;;;;;;;9.68;2.90;;;;;;;22.53;25.16;94075.72;5019030;28;20213;-66
2022/04/25 10:37:42;;;;;;;9.50;2.80;;;;;;;22.54;25.00;94110.22;5018735;28;20205;-66
2022/04/25 10:40:11;;;;;;;9.00;3.00;;;;;;;22.60;25.25;94085.91;5018534;28;20218;-66
2022/04/25 10:46:15;;;;;;;13.63;2.78;;;;;;;23.10;24.58;94086.97;5027159;28;20198;-66
2022/04/25 10:49:06;;;;;;;8.63;2.83;;;;;;;23.16;23.71;94081.53;5019079;28;20198;-66
2022/04/25 10:51:41;;;;;;;8.02;2.67;;;;;;;23.04;24.43;94081.16;5029775;28;20207;-65
2022/04/25 10:54:10;;;;;;;11.60;2.80;;;;;;;22.81;24.73;94079.56;5018496;28;20201;-65
2022/04/25 10:57:14;;;;;;;11.10;3.15;;;;;;;22.66;23.69;94083.31;5018894;28;20256;-65
2022/04/25 10:59:47;;;;;;;10.32;2.67;;;;;;;22.88;24.20;94089.75;5018239;28;20213;-65
2022/04/25 11:02:26;;;;;;;10.98;2.90;;;;;;;22.84;23.74;94077.84;5018439;28;20208;-66
2022/04/25 11:05:29;;;;;;;11.10;2.83;;;;;;;22.63;23.49;94090.63;5018382;28;20292;-65
2022/04/25 11:08:26;;;;;;;8.90;2.70;;;;;;;22.55;24.37;94103.38;5017962;28;20206;-65
2022/04/25 11:11:01;;;;;;;8.88;2.53;;;;;;;22.60;25.75;94094.34;5035653;28;20202;-65
2022/04/25 11:13:31;;;;;;;8.52;2.92;;;;;;;22.64;28.87;94092.19;5035209;28;20205;-66
2022/04/25 11:16:01;;;;;;;8.75;2.83;;;;;;;22.70;30.35;94089.59;5018199;28;20245;-66
2022/04/25 11:18:33;;;;;;;5.78;2.00;;;;;;;22.80;25.65;94097.66;5018528;28;20214;-65
2022/04/25 11:21:04;;;;;;;6.15;2.13;;;;;;;22.96;24.09;94087.50;5035609;28;20197;-65
2022/04/25 11:23:34;;;;;;;4.10;2.00;;;;;;;23.00;25.14;94082.53;5035514;28;20186;-65
2022/04/25 11:26:04;;;;;;;5.43;2.28;;;;;;;22.87;27.97;94090.19;5018004;28;20285;-66
2022/04/25 11:28:34;;;;;;;7.65;2.30;;;;;;;22.75;29.81;94105.88;5017679;28;20221;-65
2022/04/25 11:31:28;;;;;;;6.95;2.25;;;;;;;22.72;28.61;94101.16;5035458;28;20197;-66
2022/04/25 11:34:00;;;;;;;10.63;2.08;;;;;;;22.79;24.17;94089.66;5015684;28;20213;-66
2022/04/25 11:36:29;;;;;;;7.35;2.33;;;;;;;23.09;27.52;94104.28;5035286;28;20302;-65
2022/04/25 11:41:45;;;;;;;7.88;2.45;;;;;;;23.28;22.97;94083.50;5034340;28;20202;-66
2022/04/25 11:44:13;;;;;;;6.00;2.38;;;;;;;23.23;22.74;94084.88;5017893;28;20194;-65
2022/04/25 11:46:42;;;;;;;5.32;2.30;;;;;;;23.27;21.86;94076.28;5035405;28;20260;-66
2022/04/25 11:49:09;;;;;;;7.20;2.00;;;;;;;23.27;22.52;94076.28;5018057;28;20256;-65
2022/04/25 11:51:39;;;;;;;6.75;2.20;;;;;;;23.05;20.26;94081.94;5035084;28;20187;-65
2022/04/25 11:54:07;;;;;;;6.88;1.90;;;;;;;22.95;21.06;94085.91;5017734;28;20603;-66
2022/04/25 11:56:39;;;;;;;5.20;2.17;;;;;;;23.23;21.13;94090.50;5017847;28;20217;-65
2022/04/25 11:59:08;;;;;;;6.68;2.28;;;;;;;23.50;20.34;94084.25;5034733;28;20186;-65
2022/04/25 12:01:38;;;;;;;5.63;1.70;;;;;;;23.77;20.90;94078.00;5017697;28;20191;-65
2022/04/25 12:04:23;;;;;;;5.13;2.20;;;;;;;24.01;21.75;94080.31;5017611;28;20198;-65
2022/04/25 12:06:52;;;;;;;10.75;2.05;;;;;;;24.11;22.49;94083.91;5034980;28;20189;-65
2022/04/25 12:17:40;;;;;;;7.75;1.67;;;;;;;24.00;19.51;94085.16;5034558;28;20721;-66
2022/04/25 12:20:11;;;;;;;4.28;1.85;;;;;;;24.22;20.06;94098.34;5017384;28;20205;-65
2022/04/25 12:22:40;;;;;;;4.78;1.98;;;;;;;24.39;19.23;94099.66;5034683;28;20218;-66
2022/04/25 12:25:15;;;;;;;4.78;1.70;;;;;;;24.31;19.63;94084.28;5017535;28;20743;-66